Airfield :
LOGIN :

Register | Disclaimer

   EN    FR    IT 

 










Legend :    VFR   Marginal VFR   IFR   Intensive IFR   Very Intensive IFR
Visi :
Ceiling :
>= 8 km
>= 3000ft
5 to 8 km
1000 to 3000 ft
1500m to 5 km
500 to 1000 ft
800 to 1500m
200 to 500 ft
< 800m
< 200 ft
Symbols :   Thunderstorms  Fog  Heavy snow  Heavy precipitations  Wind > 20 kt
SIGMETs :     Misc.  Thunderstorms  Icing  Turbulence  Mountain Waves  Volcanic Ashes






- Airport Elevation : 68 ft


ESCM - Uppsala

CURRENT METAR :
  • 201620Z 17011KT 9999 SCT018 03/01 Q1004

EXPIRED METARs :
  • 201550Z 17012KT 9999 BKN018 03/00 Q1004
  • 201520Z 17011KT 9999 BKN018 03/00 Q1005
  • 201450Z 17009KT 9999 SCT019 BKN023 02/00 Q1006
  • 201420Z 18009KT 9999 SCT018 BKN025 02/00 Q1006
  • 201350Z 18009KT 9999 BKN018 02/M00 Q1007

TAF TAF ESCM
Valid from the 20 at 15:00 until the 20 at 21:00 UTC


201430Z 2015/2021 18008KT 9999 BKN023
TEMPO 2015/2021 BKN007
PROB40 2017/2021 17011G22KT 3000 RA BKN004 RMK MIL



MET'MAP, your aeronautical weather chart ! - Copyright ORBIFLY December 2007 - Disclaimer

ORBIFLY MET'MAP TEAM :

Programming & Development : Alexandra Zaïnal
Concept & original design : Baudouin d'Aumeries
Assistance for programming : Marc-Olivier Méhu
Technical & hardware support : Manuel Goepfert

Contact : metmap@orbifly.com




SOURCES & CREDITS :

   NOAA